createdAt,value
2019-06-07T00:02:30.066Z,15.40
2019-06-07T00:05:19.861Z,15.40
2019-06-07T00:08:10.840Z,15.30
2019-06-07T00:10:54.951Z,15.30
2019-06-07T00:13:42.249Z,15.30
2019-06-07T00:16:29.373Z,15.30
2019-06-07T00:19:18.638Z,15.30
2019-06-07T00:22:32.444Z,15.20
2019-06-07T00:24:54.331Z,15.20
2019-06-07T00:27:41.326Z,15.30
2019-06-07T00:30:41.008Z,15.30
2019-06-07T00:33:21.649Z,15.30
2019-06-07T00:36:25.633Z,15.20
2019-06-07T00:39:14.375Z,15.10
2019-06-07T00:42:01.619Z,15.10
2019-06-07T00:44:49.516Z,15.00
2019-06-07T00:47:36.767Z,14.80
2019-06-07T00:50:24.588Z,14.70
2019-06-07T00:53:16.772Z,14.60
2019-06-07T00:56:00.912Z,14.30
2019-06-07T00:59:09.711Z,14.30
2019-06-07T01:01:37.528Z,14.20
2019-06-07T01:04:26.035Z,14.20
2019-06-07T01:07:16.826Z,14.10
2019-06-07T01:10:02.732Z,13.90
2019-06-07T01:12:49.661Z,13.80
2019-06-07T01:15:36.500Z,13.70
2019-06-07T01:18:37.737Z,13.60
2019-06-07T01:21:15.077Z,13.60
2019-06-07T01:24:11.334Z,13.50
2019-06-07T01:26:50.808Z,13.40
2019-06-07T01:29:38.250Z,13.30
2019-06-07T01:32:27.292Z,13.20
2019-06-07T01:35:16.501Z,13.10
2019-06-07T01:38:03.075Z,13.00
2019-06-07T01:40:50.210Z,13.00
2019-06-07T01:43:37.575Z,12.90
2019-06-07T01:46:26.685Z,12.90
2019-06-07T01:49:13.457Z,12.80
2019-06-07T01:52:00.584Z,12.80
2019-06-07T01:54:57.512Z,12.70
2019-06-07T01:57:47.518Z,12.70
2019-06-07T02:00:28.344Z,12.60
2019-06-07T02:03:14.686Z,12.50
2019-06-07T02:06:02.259Z,12.50
2019-06-07T02:08:49.561Z,12.40
2019-06-07T02:11:38.263Z,12.40
2019-06-07T02:14:27.421Z,12.40
2019-06-07T02:17:14.035Z,12.30
2019-06-07T02:20:00.930Z,12.20
2019-06-07T02:22:48.041Z,12.20
2019-06-07T02:25:45.537Z,12.10
2019-06-07T02:28:36.537Z,12.00
2019-06-07T02:31:14.417Z,11.90
2019-06-07T02:34:01.509Z,11.90
2019-06-07T02:36:48.933Z,11.80
2019-06-07T02:39:40.477Z,11.80
2019-06-07T02:42:26.125Z,11.80
2019-06-07T02:45:16.280Z,11.70
2019-06-07T02:48:02.650Z,11.70
2019-06-07T02:50:50.454Z,11.60
2019-06-07T02:53:40.281Z,11.70
2019-06-07T02:56:39.130Z,11.80
2019-06-07T02:59:15.498Z,11.90
2019-06-07T03:02:02.982Z,11.90
2019-06-07T03:04:50.546Z,12.00
2019-06-07T03:07:40.252Z,12.10
2019-06-07T03:10:28.596Z,12.20
2019-06-07T03:13:20.497Z,12.30
2019-06-07T03:16:09.441Z,12.40
2019-06-07T03:19:00.663Z,12.40
2019-06-07T03:21:49.101Z,12.50
2019-06-07T03:24:41.277Z,12.70
2019-06-07T03:27:40.678Z,12.70
2019-06-07T03:33:02.624Z,12.90
2019-06-07T03:35:49.644Z,12.90
2019-06-07T03:38:37.646Z,12.90
2019-06-07T03:41:28.317Z,12.90
2019-06-07T03:44:14.066Z,13.00
2019-06-07T03:47:01.643Z,13.00
2019-06-07T03:49:49.165Z,13.00
2019-06-07T03:52:39.101Z,13.00
2019-06-07T03:55:25.169Z,13.00
2019-06-07T04:01:02.188Z,13.20
2019-06-07T04:03:51.857Z,13.30
2019-06-07T04:06:41.974Z,13.40
2019-06-07T04:09:28.873Z,13.50
2019-06-07T04:12:15.597Z,13.60
2019-06-07T04:15:02.844Z,13.80
2019-06-07T04:18:01.543Z,14.00
2019-06-07T04:20:40.727Z,14.10
2019-06-07T04:23:31.032Z,14.10
2019-06-07T04:26:15.971Z,14.20
2019-06-07T04:29:33.184Z,14.30
2019-06-07T04:31:52.480Z,14.30
2019-06-07T04:34:43.027Z,14.30
2019-06-07T04:37:30.952Z,14.40
2019-06-07T04:40:18.017Z,14.30
2019-06-07T04:43:05.932Z,14.10
2019-06-07T04:45:53.456Z,13.90
2019-06-07T04:48:43.549Z,13.90
2019-06-07T04:51:33.900Z,14.00
2019-06-07T04:54:20.934Z,14.20
2019-06-07T04:57:07.986Z,14.30
2019-06-07T05:00:32.631Z,14.40
2019-06-07T05:02:44.261Z,14.40
2019-06-07T05:05:32.003Z,14.40
2019-06-07T05:08:28.226Z,14.40
2019-06-07T05:11:08.535Z,14.40
2019-06-07T05:13:56.000Z,14.20
2019-06-07T05:16:44.341Z,14.20
2019-06-07T05:19:35.197Z,14.30
2019-06-07T05:22:20.785Z,14.40
2019-06-07T05:25:09.851Z,14.30
2019-06-07T05:27:57.264Z,14.30
2019-06-07T05:31:03.892Z,14.10
2019-06-07T05:33:38.083Z,14.00
2019-06-07T05:36:24.274Z,14.00
2019-06-07T05:39:11.681Z,13.90
2019-06-07T05:41:59.137Z,13.60
2019-06-07T05:44:46.361Z,13.60
2019-06-07T05:47:40.105Z,13.70
2019-06-07T05:50:39.008Z,13.70
2019-06-07T05:53:12.300Z,13.80
2019-06-07T05:55:59.498Z,13.80
2019-06-07T05:58:46.606Z,13.80
2019-06-07T06:02:00.238Z,13.60
2019-06-07T06:04:22.531Z,13.80
2019-06-07T06:07:29.568Z,13.90
2019-06-07T06:10:17.456Z,13.90
2019-06-07T06:13:04.521Z,14.00
2019-06-07T06:16:01.137Z,14.30
2019-06-07T06:18:41.308Z,14.20
2019-06-07T06:21:30.511Z,14.20
2019-06-07T06:24:17.591Z,14.40
2019-06-07T06:27:18.902Z,14.60
2019-06-07T06:29:53.778Z,14.70
2019-06-07T06:32:49.368Z,14.80
2019-06-07T06:35:30.828Z,15.00
2019-06-07T06:38:17.941Z,15.00
2019-06-07T06:41:16.027Z,15.10
2019-06-07T06:43:54.549Z,15.20
2019-06-07T06:46:46.406Z,15.00
2019-06-07T06:49:30.348Z,15.00
2019-06-07T06:52:18.053Z,15.20
2019-06-07T06:55:09.824Z,15.30
2019-06-07T06:57:57.461Z,15.20
2019-06-07T07:01:06.808Z,15.40
2019-06-07T07:04:12.428Z,15.50
2019-06-07T07:06:42.740Z,15.70
2019-06-07T07:09:30.661Z,15.70
2019-06-07T07:12:23.784Z,15.90
2019-06-07T07:15:17.709Z,15.80
2019-06-07T07:18:08.718Z,15.70
2019-06-07T07:20:57.297Z,15.80
2019-06-07T07:24:07.843Z,16.10
2019-06-07T07:26:31.383Z,16.50
2019-06-07T07:29:18.605Z,16.70
2019-06-07T07:32:05.852Z,17.00
2019-06-07T07:35:00.036Z,17.00
2019-06-07T07:37:43.753Z,17.10
2019-06-07T07:43:19.695Z,17.40
2019-06-07T07:46:28.438Z,17.70
2019-06-07T07:48:56.253Z,17.70
2019-06-07T07:51:44.038Z,17.20
2019-06-07T07:54:31.292Z,17.60
2019-06-07T07:57:18.301Z,17.70
2019-06-07T08:00:48.749Z,18.10
2019-06-07T08:03:04.115Z,18.50
2019-06-07T08:05:49.232Z,18.30
2019-06-07T08:08:36.238Z,18.20
2019-06-07T08:11:24.837Z,18.00
2019-06-07T08:14:13.399Z,18.20
2019-06-07T08:17:00.321Z,18.40
2019-06-07T08:19:48.079Z,18.70
2019-06-07T08:22:35.934Z,18.60
2019-06-07T08:25:23.008Z,18.30
2019-06-07T08:28:10.244Z,18.30
2019-06-07T08:31:06.763Z,18.40
2019-06-07T08:34:03.098Z,18.60
2019-06-07T08:36:52.247Z,19.00
2019-06-07T08:39:39.101Z,19.20
2019-06-07T08:42:36.802Z,19.40
2019-06-07T08:45:15.426Z,19.80
2019-06-07T08:48:09.503Z,19.90
2019-06-07T08:50:54.204Z,20.10
2019-06-07T08:53:38.820Z,20.30
2019-06-07T08:56:26.118Z,20.00
2019-06-07T08:59:12.704Z,19.40
2019-06-07T09:02:06.584Z,19.20
2019-06-07T09:04:48.525Z,19.40
2019-06-07T09:07:35.643Z,19.60
2019-06-07T09:10:24.462Z,19.60
2019-06-07T09:13:12.098Z,19.80
2019-06-07T09:16:04.964Z,19.90
2019-06-07T09:18:48.080Z,20.20
2019-06-07T09:21:35.264Z,20.50
2019-06-07T09:24:22.115Z,20.40
2019-06-07T09:27:10.450Z,20.40
2019-06-07T09:30:04.632Z,20.30
2019-06-07T09:32:46.056Z,20.30
2019-06-07T09:35:33.113Z,20.60
2019-06-07T09:38:25.805Z,20.60
2019-06-07T09:41:09.780Z,20.60
2019-06-07T09:44:13.178Z,20.70
2019-06-07T09:46:45.403Z,20.60
2019-06-07T09:49:33.465Z,20.80
2019-06-07T09:52:20.637Z,21.20
2019-06-07T09:55:22.761Z,21.50
2019-06-07T09:58:08.015Z,21.60
2019-06-07T10:00:45.841Z,21.50
2019-06-07T10:03:33.092Z,21.50
2019-06-07T10:06:20.363Z,21.50
2019-06-07T10:11:58.096Z,22.20
2019-06-07T10:14:45.634Z,22.40
2019-06-07T10:17:31.468Z,22.40
2019-06-07T10:20:18.648Z,22.70
2019-06-07T10:23:05.888Z,22.40
2019-06-07T10:25:53.005Z,22.50
2019-06-07T10:28:40.209Z,22.20
2019-06-07T10:31:27.244Z,22.30
2019-06-07T10:34:14.107Z,22.80
2019-06-07T10:37:03.294Z,23.10
2019-06-07T10:39:50.083Z,22.80
2019-06-07T10:42:37.080Z,22.90
2019-06-07T10:45:25.312Z,22.80
2019-06-07T10:48:12.519Z,23.10
2019-06-07T10:50:59.843Z,23.70
2019-06-07T10:53:46.934Z,24.40
2019-06-07T10:56:34.135Z,24.80
2019-06-07T10:59:21.425Z,25.00
2019-06-07T11:02:09.741Z,24.70
2019-06-07T11:04:57.137Z,25.20
2019-06-07T11:07:43.969Z,24.80
2019-06-07T11:10:31.248Z,25.30
2019-06-07T11:13:18.442Z,25.60
2019-06-07T11:16:06.838Z,25.70
2019-06-07T11:18:53.670Z,26.00
2019-06-07T11:21:40.477Z,26.20
2019-06-07T11:24:28.108Z,26.40
2019-06-07T11:27:16.383Z,25.60
2019-06-07T11:30:06.522Z,25.10
2019-06-07T11:32:53.114Z,25.00
2019-06-07T11:35:40.245Z,25.80
2019-06-07T11:38:27.206Z,26.40
2019-06-07T11:41:13.899Z,26.80
2019-06-07T11:44:00.798Z,27.10
2019-06-07T11:46:47.533Z,27.10
2019-06-07T11:49:34.563Z,27.40
2019-06-07T11:52:21.787Z,27.20
2019-06-07T11:55:11.379Z,27.50
2019-06-07T11:57:58.333Z,27.20
2019-06-07T12:00:45.363Z,27.20
2019-06-07T12:03:32.257Z,27.10
2019-06-07T12:06:19.184Z,27.50
2019-06-07T12:09:08.553Z,27.30
2019-06-07T12:11:55.806Z,27.10
2019-06-07T12:14:42.501Z,27.60
2019-06-07T12:17:50.183Z,27.70
2019-06-07T12:20:37.189Z,28.20
2019-06-07T12:23:24.069Z,27.50
2019-06-07T12:26:10.750Z,27.90
2019-06-07T12:28:57.911Z,28.60
2019-06-07T12:31:45.113Z,28.70
2019-06-07T12:34:32.272Z,28.80
2019-06-07T12:37:22.452Z,29.20
2019-06-07T12:40:10.104Z,29.50
2019-06-07T12:42:57.122Z,29.30
2019-06-07T12:45:45.517Z,29.30
2019-06-07T12:48:32.434Z,29.60
2019-06-07T12:51:19.403Z,29.70
2019-06-07T12:54:06.661Z,30.00
2019-06-07T12:56:53.710Z,30.00
2019-06-07T12:59:40.909Z,29.80
2019-06-07T13:02:27.766Z,29.80
2019-06-07T13:05:15.452Z,29.60
2019-06-07T13:08:02.156Z,29.70
2019-06-07T13:10:49.196Z,29.30
2019-06-07T13:13:36.286Z,29.50
2019-06-07T13:16:24.232Z,29.80
2019-06-07T13:19:11.402Z,30.10
2019-06-07T13:21:58.302Z,29.70
2019-06-07T13:24:45.455Z,29.60
2019-06-07T13:27:33.795Z,29.80
2019-06-07T13:30:23.274Z,28.60
2019-06-07T13:33:10.380Z,28.50
2019-06-07T13:35:57.249Z,29.00
2019-06-07T13:38:44.453Z,29.20
2019-06-07T13:41:41.877Z,29.50
2019-06-07T13:44:20.942Z,29.50
2019-06-07T13:47:07.925Z,29.70
2019-06-07T13:49:55.407Z,29.50
2019-06-07T13:52:45.192Z,30.00
2019-06-07T13:55:31.411Z,30.40
2019-06-07T13:58:18.824Z,30.50
2019-06-07T14:01:06.954Z,30.60
2019-06-07T14:03:53.938Z,30.60
2019-06-07T14:06:41.093Z,30.70
2019-06-07T14:09:29.554Z,30.80
2019-06-07T14:12:16.773Z,30.80
2019-06-07T14:15:04.861Z,30.70
2019-06-07T14:17:51.787Z,30.40
2019-06-07T14:20:39.206Z,30.50
2019-06-07T14:23:45.155Z,30.50
2019-06-07T14:26:14.790Z,30.60
2019-06-07T14:29:01.693Z,30.80
2019-06-07T14:31:50.266Z,31.00
2019-06-07T14:34:37.530Z,31.30
2019-06-07T14:37:24.875Z,31.50
2019-06-07T14:40:14.850Z,31.40
2019-06-07T14:43:01.625Z,31.60
2019-06-07T14:45:48.522Z,31.80
2019-06-07T14:48:35.650Z,31.80
2019-06-07T14:51:24.131Z,31.80
2019-06-07T14:54:11.077Z,31.90
2019-06-07T14:56:58.272Z,32.00
2019-06-07T14:59:45.728Z,32.40
2019-06-07T15:02:36.447Z,32.40
2019-06-07T15:05:24.350Z,32.50
2019-06-07T15:08:10.973Z,32.50
2019-06-07T15:10:58.403Z,32.30
2019-06-07T15:13:45.708Z,32.40
2019-06-07T15:16:33.747Z,32.10
2019-06-07T15:19:23.948Z,31.00
2019-06-07T15:22:09.521Z,30.10
2019-06-07T15:24:56.283Z,29.60
2019-06-07T15:27:43.513Z,29.40
2019-06-07T15:30:31.645Z,29.20
2019-06-07T15:33:18.641Z,29.10
2019-06-07T15:36:05.295Z,28.90
2019-06-07T15:38:52.153Z,28.70
2019-06-07T15:41:39.886Z,28.50
2019-06-07T15:44:27.186Z,28.50
2019-06-07T15:47:14.318Z,28.60
2019-06-07T15:50:01.511Z,28.60
2019-06-07T15:52:48.524Z,28.70
2019-06-07T15:55:39.510Z,28.60
2019-06-07T15:58:25.454Z,28.50
2019-06-07T16:01:12.360Z,28.50
2019-06-07T16:03:59.598Z,28.40
2019-06-07T16:06:47.055Z,28.20
2019-06-07T16:09:34.364Z,28.00
2019-06-07T16:12:21.524Z,27.90
2019-06-07T16:15:10.338Z,27.90
2019-06-07T16:17:57.163Z,27.90
2019-06-07T16:20:44.452Z,28.00
2019-06-07T16:23:31.686Z,28.10
2019-06-07T16:26:18.522Z,28.10
2019-06-07T16:29:05.848Z,28.50
2019-06-07T16:31:54.082Z,29.20
2019-06-07T16:34:41.794Z,30.20
2019-06-07T16:37:30.258Z,30.90
2019-06-07T16:40:38.288Z,30.90
2019-06-07T16:43:26.208Z,30.80
2019-06-07T16:46:14.483Z,30.50
2019-06-07T16:49:02.293Z,30.10
2019-06-07T16:51:49.526Z,29.80
2019-06-07T16:54:37.317Z,29.60
2019-06-07T16:57:24.723Z,29.50
2019-06-07T17:00:13.250Z,29.20
2019-06-07T17:03:00.205Z,28.90
2019-06-07T17:05:50.345Z,28.70
2019-06-07T17:08:37.990Z,28.60
2019-06-07T17:11:26.298Z,28.30
2019-06-07T17:14:12.893Z,28.10
2019-06-07T17:16:59.854Z,28.10
2019-06-07T17:19:47.485Z,27.60
2019-06-07T17:22:34.403Z,27.10
2019-06-07T17:25:21.672Z,26.50
2019-06-07T17:28:09.913Z,26.20
2019-06-07T17:30:58.168Z,26.00
2019-06-07T17:33:46.016Z,25.60
2019-06-07T17:36:33.257Z,24.60
2019-06-07T17:39:20.645Z,23.30
2019-06-07T17:42:08.138Z,22.50
2019-06-07T17:44:55.288Z,21.30
2019-06-07T17:47:43.721Z,20.90
2019-06-07T17:50:30.993Z,20.60
2019-06-07T17:53:18.725Z,20.40
2019-06-07T17:56:05.754Z,20.40
2019-06-07T17:58:52.720Z,20.20
2019-06-07T18:01:41.796Z,19.80
2019-06-07T18:04:28.445Z,18.90
2019-06-07T18:07:16.645Z,17.90
2019-06-07T18:10:06.579Z,17.50
2019-06-07T18:12:54.452Z,17.10
2019-06-07T18:15:50.098Z,16.70
2019-06-07T18:18:35.133Z,16.70
2019-06-07T18:21:22.016Z,16.70
2019-06-07T18:24:09.144Z,16.70
2019-06-07T18:26:56.328Z,16.70
2019-06-07T18:29:43.541Z,16.60
2019-06-07T18:32:30.715Z,16.70
2019-06-07T18:35:18.168Z,16.40
2019-06-07T18:38:05.478Z,16.20
2019-06-07T18:40:53.289Z,16.00
2019-06-07T18:43:40.874Z,15.80
2019-06-07T18:46:28.868Z,15.70
2019-06-07T18:49:16.242Z,15.60
2019-06-07T18:52:14.028Z,15.50
2019-06-07T18:55:01.265Z,15.50
2019-06-07T18:57:50.070Z,15.40
2019-06-07T19:00:37.553Z,15.50
2019-06-07T19:03:25.089Z,15.50
2019-06-07T19:06:12.255Z,15.60
2019-06-07T19:08:59.705Z,15.60
2019-06-07T19:11:47.104Z,15.50
2019-06-07T19:14:37.289Z,15.40
2019-06-07T19:17:22.925Z,15.30
2019-06-07T19:20:10.116Z,15.20
2019-06-07T19:22:58.319Z,15.30
2019-06-07T19:25:44.957Z,15.40
2019-06-07T19:28:31.020Z,15.50
2019-06-07T19:31:18.257Z,15.50
2019-06-07T19:34:05.640Z,15.50
2019-06-07T19:36:53.588Z,15.50
2019-06-07T19:39:40.876Z,15.50
2019-06-07T19:42:28.085Z,15.50
2019-06-07T19:45:29.473Z,15.50
2019-06-07T19:48:04.869Z,15.50
2019-06-07T19:50:52.881Z,15.60
2019-06-07T19:53:40.869Z,15.70
2019-06-07T19:56:27.757Z,15.70
2019-06-07T19:59:13.915Z,15.70
2019-06-07T20:02:02.089Z,15.80
2019-06-07T20:04:48.856Z,15.90
2019-06-07T20:07:35.724Z,15.90
2019-06-07T20:10:22.968Z,15.80
2019-06-07T20:13:09.870Z,15.90
2019-06-07T20:15:56.936Z,15.90
2019-06-07T20:18:43.559Z,16.10
2019-06-07T20:21:30.440Z,16.10
2019-06-07T20:24:26.517Z,16.20
2019-06-07T20:27:06.140Z,16.10
2019-06-07T20:29:53.305Z,16.10
2019-06-07T20:32:40.735Z,16.10
2019-06-07T20:35:28.018Z,16.00
2019-06-07T20:38:15.668Z,16.00
2019-06-07T20:41:03.262Z,16.10
2019-06-07T20:43:50.530Z,16.20
2019-06-07T20:46:37.678Z,16.30
2019-06-07T20:49:25.297Z,16.40
2019-06-07T20:52:11.352Z,16.20
2019-06-07T20:54:58.504Z,16.10
2019-06-07T20:57:46.217Z,16.00
2019-06-07T21:00:33.563Z,15.90
2019-06-07T21:03:20.749Z,15.80
2019-06-07T21:06:08.172Z,15.80
2019-06-07T21:08:55.019Z,15.80
2019-06-07T21:11:42.147Z,15.80
2019-06-07T21:14:29.301Z,15.90
2019-06-07T21:17:16.508Z,15.90
2019-06-07T21:20:02.950Z,15.90
2019-06-07T21:22:50.776Z,15.90
2019-06-07T21:25:38.389Z,15.90
2019-06-07T21:28:25.819Z,16.00
2019-06-07T21:31:12.873Z,16.00
2019-06-07T21:34:01.290Z,16.00
2019-06-07T21:36:48.704Z,15.90
2019-06-07T21:39:35.845Z,15.80
2019-06-07T21:42:22.902Z,15.90
2019-06-07T21:45:11.885Z,15.90
2019-06-07T21:47:59.157Z,15.90
2019-06-07T21:50:46.070Z,16.00
2019-06-07T21:53:33.326Z,16.00
2019-06-07T21:56:20.311Z,16.10
2019-06-07T21:59:07.422Z,16.20
2019-06-07T22:01:54.731Z,16.20
2019-06-07T22:04:41.918Z,16.20
2019-06-07T22:07:29.258Z,16.30
2019-06-07T22:10:16.811Z,16.30
2019-06-07T22:13:04.533Z,16.30
2019-06-07T22:15:51.373Z,16.30
2019-06-07T22:18:38.506Z,16.20
2019-06-07T22:21:25.557Z,16.00
2019-06-07T22:24:13.200Z,15.70
2019-06-07T22:27:00.226Z,15.60
2019-06-07T22:29:46.286Z,15.50
2019-06-07T22:32:33.668Z,15.50
2019-06-07T22:35:20.391Z,15.50
2019-06-07T22:38:08.088Z,15.60
2019-06-07T22:40:54.901Z,15.40
2019-06-07T22:43:42.011Z,15.40
2019-06-07T22:46:37.333Z,15.40
2019-06-07T22:53:07.341Z,15.30
2019-06-07T22:55:59.017Z,15.10
2019-06-07T22:58:46.292Z,15.10
2019-06-07T23:01:33.088Z,15.20
2019-06-07T23:04:20.642Z,15.10
2019-06-07T23:07:08.705Z,15.10
2019-06-07T23:09:56.121Z,15.00
2019-06-07T23:12:43.261Z,15.00
2019-06-07T23:15:30.570Z,14.90
2019-06-07T23:18:17.705Z,15.00
2019-06-07T23:21:04.916Z,15.00
2019-06-07T23:23:52.241Z,15.00
2019-06-07T23:26:38.286Z,15.00
2019-06-07T23:29:25.448Z,15.00
2019-06-07T23:32:12.637Z,15.00
2019-06-07T23:34:59.994Z,15.00
2019-06-07T23:37:47.071Z,15.10
2019-06-07T23:40:34.366Z,15.20
2019-06-07T23:43:21.991Z,15.20
2019-06-07T23:46:09.465Z,15.20
2019-06-07T23:48:56.587Z,15.20
2019-06-07T23:51:43.735Z,15.20
2019-06-07T23:54:30.832Z,15.20
2019-06-07T23:57:19.261Z,15.20
